KITH/ITH METAR and TAF weather

Enter ICAO airport designator
Station Type Date Time Source
KITH METAR 2019/10/15 08:56 UTC NOAA

KITH 150856Z AUTO 00000KT 10SM CLR 02/02 A3014 RMK AO2 SLP214 T00170017 53008


Station Type Date Time Source
KITH Decoded METAR 2019/10/15 08:56 UTC NOAA

Ithaca, Ithaca Tompkins Regional Airport, NY, United States (KITH) 42-29-27N 076-27-30W
Oct 15, 2019 - 04:56 AM EDT / 2019.10.15 0856 UTC
Wind: Calm:0
Visibility: 10 mile(s):0
Sky conditions: clear
Temperature: 35.1 F (1.7 C)
Dew Point: 35.1 F (1.7 C)
Relative Humidity: 100%
Pressure (altimeter): 30.14 in. Hg (1020 hPa)
Pressure tendency: 0.02 inches (0.8 hPa) higher than three hours ago
ob: KITH 150856Z AUTO 00000KT 10SM CLR 02/02 A3014 RMK AO2 SLP214 T00170017 53008
cycle: 9

Station Type Date Time Source
KITH TAF 2019/10/15 06:24 UTC NOAA

TAF KITH 150523Z 1506/1606 30005KT P6SM OVC060
FM151000 19005KT P6SM SCT060 SCT250
FM151500 15005KT P6SM SCT200

Example: see airport list